Szechuen — 9V9718 — position and weather

sailwx.info

Track history (hours):
 
Tides and Currents Weather Stations Pressure Air Temp Water Temp Dewpoint Dewpoint Depression Visibility Wind Speed Wind Dir Waves Ship Positions

Szechuen

Last reported at 2017-Nov-23 17:00 UTC. Time now 2017-Nov-24 16:46 UTC.
Position S 39°00' E 147°02'.

Length 200 m; draft 8.1 m.

Type: Cargo ship. MMSI: 564407000.

Date/timePositionNaut miles runAvg speedWind from/ knotsBaromVisibWave heightAir tempDewpointWater temp
2017-Nov-23 17:00S 39°00' E 147°02'2913.5
2017-Nov-23 14:49S 38°51' E 147°38'513.8
2017-Nov-23 14:29S 38°49' E 147°44'813.8
2017-Nov-23 13:55S 38°47' E 147°53'613.5
2017-Nov-23 13:29S 38°45' E 148°00'713.4
2017-Nov-23 12:57S 38°43' E 148°09'613.3
2017-Nov-23 12:30S 38°40' E 148°16'713.4
2017-Nov-23 12:00S 38°36' E 148°23'613.0
2017-Nov-23 11:30S 38°32' E 148°30'712.9
2017-Nov-23 11:00S 38°28' E 148°36'713.2
2017-Nov-23 10:30S 38°25' E 148°43'713.2
2017-Nov-23 10:00S 38°21' E 148°50'713.0
2017-Nov-23 09:30S 38°17' E 148°57'  
2017-Nov-20 00:28S 32°55' E 151°46'0 0.0
2017-Nov-19 23:58S 32°55' E 151°46'0 0.0
2017-Nov-19 23:25S 32°55' E 151°46'0 0.0
2017-Nov-19 23:00S 32°55' E 151°46'0 0.0
2017-Nov-19 22:30S 32°55' E 151°46'0 0.0
2017-Nov-19 22:00S 32°55' E 151°46'0 0.5
2017-Nov-19 21:30S 32°55' E 151°46'3 6.7
2017-Nov-19 21:00S 32°55' E 151°50'4 8.3
2017-Nov-19 20:30S 32°59' E 151°53'4 8.2
2017-Nov-19 20:00S 33°01' E 151°57'4 8.7
2017-Nov-19 19:30S 33°02' E 152°02'2 3.4
2017-Nov-19 19:00S 33°03' E 152°04'1 1.1
2017-Nov-19 18:30S 33°03' E 152°04'1 1.1
2017-Nov-19 18:00S 33°04' E 152°05'0 0.2
2017-Nov-19 17:30S 33°04' E 152°05'5 9.5
2017-Nov-19 17:00S 32°59' E 152°06'5 9.7
2017-Nov-19 16:30S 32°55' E 152°08'510.1
2017-Nov-19 16:00S 32°51' E 152°12'510.8
2017-Nov-19 15:30S 32°48' E 152°17'611.1
2017-Nov-19 15:00S 32°44' E 152°23'611.3
2017-Nov-19 14:30S 32°41' E 152°28'612.0
2017-Nov-19 14:00S 32°37' E 152°33'24713.3
2017-Nov-18 19:22S 28°39' E 153°53'412.5
2017-Nov-18 19:00S 28°35' E 153°53'612.0
2017-Nov-18 18:30S 28°29' E 153°53'612.3
2017-Nov-18 17:59S 28°22' E 153°52'612.1
2017-Nov-18 17:30S 28°17' E 153°52'612.2
2017-Nov-18 17:00S 28°10' E 153°52'611.8
2017-Nov-18 16:30S 28°05' E 153°52'611.9
2017-Nov-18 16:00S 27°59' E 153°51'611.9
2017-Nov-18 15:30S 27°53' E 153°51'611.9
2017-Nov-18 15:00S 27°47' E 153°51'612.5
2017-Nov-18 14:30S 27°40' E 153°51'2612.7
2017-Nov-18 12:28S 27°15' E 153°44'712.0
2017-Nov-18 11:53S 27°09' E 153°41'511.8
2017-Nov-18 11:30S 27°05' E 153°39'612.0
2017-Nov-18 10:59S 26°59' E 153°36'1011.4
2017-Nov-18 10:05S 26°51' E 153°29'112.2
2017-Nov-18 10:00S 26°51' E 153°28'1612.1
2017-Nov-18 08:38S 26°42' E 153°12'3 9.9
2017-Nov-18 08:21S 26°45' E 153°13'513.8
2017-Nov-18 08:00S 26°49' E 153°10'713.5
2017-Nov-18 07:30S 26°56' E 153°12'815.2
2017-Nov-18 07:01S 27°03' E 153°16'714.7
2017-Nov-18 06:30S 27°08' E 153°21'715.1
2017-Nov-18 06:01S 27°15' E 153°18'713.9
2017-Nov-18 05:30S 27°20' E 153°12'4 7.1
2017-Nov-18 05:01S 27°23' E 153°10'0 0.0
2017-Nov-18 04:29S 27°23' E 153°10'0 0.0
2017-Nov-18 03:59S 27°23' E 153°10'0 0.0
2017-Nov-18 03:29S 27°23' E 153°10'0 0.0
2017-Nov-18 02:59S 27°23' E 153°10'0 0.0
2017-Nov-18 02:30S 27°23' E 153°10'0 0.0
2017-Nov-18 02:00S 27°23' E 153°10'0 0.0
2017-Nov-18 01:28S 27°23' E 153°10'0 0.0
2017-Nov-18 00:58S 27°23' E 153°10'0 0.0
2017-Nov-18 00:30S 27°23' E 153°10'0 0.0
2017-Nov-17 23:54S 27°23' E 153°10'0 0.0
2017-Nov-17 23:30S 27°23' E 153°10'0 0.0
2017-Nov-17 22:58S 27°23' E 153°10'0 0.0
2017-Nov-17 22:28S 27°23' E 153°10'0 0.0
2017-Nov-17 22:00S 27°23' E 153°10'0 0.0
2017-Nov-17 21:30S 27°23' E 153°10'0 0.0
2017-Nov-17 21:00S 27°23' E 153°10'0 0.0
2017-Nov-17 20:28S 27°23' E 153°10'0 0.0
2017-Nov-17 20:00S 27°23' E 153°10'0 0.0
2017-Nov-17 19:30S 27°23' E 153°10'0 0.0
2017-Nov-17 19:00S 27°23' E 153°10'0 0.0
2017-Nov-17 18:30S 27°23' E 153°10'0 0.0
2017-Nov-17 18:01S 27°23' E 153°10'0 0.0
2017-Nov-17 17:30S 27°23' E 153°10'0 0.0
2017-Nov-17 17:01S 27°23' E 153°10'0 0.0
2017-Nov-17 16:30S 27°23' E 153°10'0 0.0
2017-Nov-17 15:59S 27°23' E 153°10'0 0.0
2017-Nov-17 15:28S 27°23' E 153°10'0 0.0
2017-Nov-17 14:58S 27°23' E 153°10'0 0.0
2017-Nov-17 14:25S 27°23' E 153°10'0 0.0
2017-Nov-17 13:52S 27°23' E 153°10'0 0.0
2017-Nov-17 12:31S 27°23' E 153°10'0 0.0
2017-Nov-17 12:28S 27°23' E 153°10'0 0.0
2017-Nov-17 11:58S 27°23' E 153°10'0 0.0
2017-Nov-17 11:28S 27°23' E 153°10'0 0.0
2017-Nov-17 10:58S 27°23' E 153°10'0 0.0
2017-Nov-17 10:28S 27°23' E 153°10'0 0.0
2017-Nov-17 09:58S 27°23' E 153°10'0 0.0
2017-Nov-17 09:28S 27°23' E 153°10'0 0.0
2017-Nov-17 08:58S 27°23' E 153°10'0 0.0
2017-Nov-17 08:28S 27°23' E 153°10'0 0.0
2017-Nov-17 07:58S 27°23' E 153°10'0 0.0
2017-Nov-17 07:28S 27°23' E 153°10'0 0.0
2017-Nov-17 06:58S 27°23' E 153°10'0 0.0
2017-Nov-17 06:28S 27°23' E 153°10'0 0.0
2017-Nov-17 05:58S 27°23' E 153°10'0 0.0
2017-Nov-17 05:28S 27°23' E 153°10'0 0.0
2017-Nov-17 04:46S 27°23' E 153°10'0 0.0
2017-Nov-17 04:22S 27°23' E 153°10'0 0.0
2017-Nov-17 03:52S 27°23' E 153°10'0 0.0
2017-Nov-17 03:22S 27°23' E 153°10'0 0.0
2017-Nov-17 02:52S 27°23' E 153°10'0 0.0
2017-Nov-17 02:28S 27°23' E 153°10'0 0.0
2017-Nov-17 02:00S 27°23' E 153°10'0 0.0
2017-Nov-17 01:30S 27°23' E 153°10'0 0.0
2017-Nov-17 01:00S 27°23' E 153°10'0 0.0
2017-Nov-17 00:30S 27°23' E 153°10'0 0.0
2017-Nov-17 00:00S 27°23' E 153°10'0 0.0
2017-Nov-16 23:30S 27°23' E 153°10'0 0.0
2017-Nov-16 23:00S 27°23' E 153°10'0 0.0
2017-Nov-16 22:29S 27°23' E 153°10'0 0.0
2017-Nov-16 22:00S 27°23' E 153°10'0 0.0
2017-Nov-16 21:27S 27°23' E 153°10'0 0.0
2017-Nov-16 21:00S 27°23' E 153°10'0 0.0
2017-Nov-16 20:30S 27°23' E 153°10'0 0.0
2017-Nov-16 19:57S 27°23' E 153°10'0 0.0
2017-Nov-16 19:30S 27°23' E 153°10'0 0.0
2017-Nov-16 19:00S 27°23' E 153°10'0 0.0
2017-Nov-16 18:30S 27°23' E 153°10'0 0.0
2017-Nov-16 17:57S 27°23' E 153°10'0 0.0
2017-Nov-16 17:30S 27°23' E 153°10'0 0.0
2017-Nov-16 17:00S 27°23' E 153°10'0 0.0
2017-Nov-16 16:30S 27°23' E 153°10'0 0.0
2017-Nov-16 16:00S 27°23' E 153°10'0 0.0
2017-Nov-16 15:30S 27°23' E 153°10'0 0.0
2017-Nov-16 15:00S 27°23' E 153°10'0 0.0
2017-Nov-16 14:30S 27°23' E 153°10'0 0.0
2017-Nov-16 14:00S 27°23' E 153°10'0 0.0
2017-Nov-16 13:30S 27°23' E 153°10'0 0.0
2017-Nov-16 13:00S 27°23' E 153°10'0 0.0
2017-Nov-16 12:30S 27°23' E 153°10'0 0.0
2017-Nov-16 12:00S 27°23' E 153°10'0 0.0
2017-Nov-16 11:30S 27°23' E 153°10'0 0.0
2017-Nov-16 11:00S 27°23' E 153°10'0 0.0
2017-Nov-16 10:30S 27°23' E 153°10'0 0.0
2017-Nov-16 10:00S 27°23' E 153°10'0 0.0
2017-Nov-16 09:30S 27°23' E 153°10'0 0.0
2017-Nov-16 09:00S 27°23' E 153°10'0 0.0
2017-Nov-16 08:30S 27°23' E 153°10'0 0.0
2017-Nov-16 08:00S 27°23' E 153°10'0 0.0
2017-Nov-16 07:30S 27°23' E 153°10'0 0.0
2017-Nov-16 07:00S 27°23' E 153°10'0 0.0
2017-Nov-16 06:30S 27°23' E 153°10'0 0.0
2017-Nov-16 06:00S 27°23' E 153°10'0 0.0
2017-Nov-16 05:30S 27°23' E 153°10'0 0.0
2017-Nov-16 05:00S 27°23' E 153°10'0 0.0
2017-Nov-16 04:30S 27°23' E 153°10'0 0.0
2017-Nov-16 04:00S 27°23' E 153°10'0 0.0
2017-Nov-16 03:30S 27°23' E 153°10'0 0.0
2017-Nov-16 02:35S 27°23' E 153°10'0 0.0
2017-Nov-16 02:28S 27°23' E 153°10'0 0.0
2017-Nov-16 01:59S 27°23' E 153°10'0 0.0
2017-Nov-16 01:25S 27°23' E 153°10'0 0.0
2017-Nov-16 01:00S 27°23' E 153°10'0 0.0
2017-Nov-16 00:26S 27°23' E 153°10'0 0.0
2017-Nov-15 23:58S 27°23' E 153°10'0 0.0
2017-Nov-15 23:30S 27°23' E 153°10'0 0.0
2017-Nov-15 23:00S 27°23' E 153°10'0 0.0
2017-Nov-15 22:24S 27°23' E 153°10'0 0.0
2017-Nov-15 22:00S 27°23' E 153°10'0 0.0
2017-Nov-15 21:30S 27°23' E 153°10'0 0.0
2017-Nov-15 21:00S 27°23' E 153°10'0 0.0
2017-Nov-15 20:30S 27°23' E 153°10'0 0.0
2017-Nov-15 20:00S 27°23' E 153°10'0 0.0
2017-Nov-15 19:30S 27°23' E 153°10'0 0.0
2017-Nov-15 19:00S 27°23' E 153°10'0 0.0
2017-Nov-15 18:30S 27°23' E 153°10'0 0.0
2017-Nov-15 18:00S 27°23' E 153°10'0 0.0
2017-Nov-15 17:28S 27°23' E 153°10'0 0.0
2017-Nov-15 17:00S 27°23' E 153°10'0 0.0
2017-Nov-15 16:30S 27°23' E 153°10'0 0.0
2017-Nov-15 16:01S 27°23' E 153°10'0 0.0
2017-Nov-15 15:30S 27°23' E 153°10'0 0.0
2017-Nov-15 15:00S 27°23' E 153°10'0 0.0
2017-Nov-15 14:30S 27°23' E 153°10'0 0.0
2017-Nov-15 14:00S 27°23' E 153°10'0 0.0
2017-Nov-15 13:28S 27°23' E 153°10'0 0.0
2017-Nov-15 13:00S 27°23' E 153°10'0 0.0
2017-Nov-15 12:30S 27°23' E 153°10'0 0.0
2017-Nov-15 11:59S 27°23' E 153°10'0 0.0
2017-Nov-15 11:29S 27°23' E 153°10'0 0.0
2017-Nov-15 10:53S 27°23' E 153°10'0 0.0
2017-Nov-15 10:29S 27°23' E 153°10'0 0.0
2017-Nov-15 09:59S 27°23' E 153°10'0 0.0
2017-Nov-15 09:14S 27°23' E 153°10'0 0.0
2017-Nov-15 08:59S 27°23' E 153°10'0 0.0
2017-Nov-15 08:29S 27°23' E 153°10'0 0.0
2017-Nov-15 07:56S 27°23' E 153°10'0 0.0
2017-Nov-15 07:29S 27°23' E 153°10'0 0.0
2017-Nov-15 06:59S 27°23' E 153°10'0 0.0
2017-Nov-15 06:26S 27°23' E 153°10'0 0.0
2017-Nov-15 05:05S 27°23' E 153°10'0 0.0
2017-Nov-15 04:59S 27°23' E 153°10'0 0.0
2017-Nov-15 04:29S 27°23' E 153°10'0 0.0
2017-Nov-15 03:56S 27°23' E 153°10'0 0.0
2017-Nov-15 02:53S 27°23' E 153°10'0 0.0
2017-Nov-15 02:23S 27°23' E 153°10'0 0.0
2017-Nov-15 01:53S 27°23' E 153°10'0 0.0
2017-Nov-15 00:03S 27°23' E 153°10'0 0.0
2017-Nov-14 23:56S 27°23' E 153°10'0 0.0
2017-Nov-14 23:04S 27°23' E 153°10'0 0.0
2017-Nov-14 22:49S 27°23' E 153°10'0 0.0
2017-Nov-14 22:29S 27°23' E 153°10'0 0.0
2017-Nov-14 22:00S 27°23' E 153°10'0 0.0
2017-Nov-14 21:30S 27°23' E 153°10'0 0.0
2017-Nov-14 21:00S 27°23' E 153°10'0 0.0
2017-Nov-14 20:30S 27°23' E 153°10'0 0.0
2017-Nov-14 20:00S 27°23' E 153°10'0 0.0
2017-Nov-14 19:30S 27°23' E 153°10'0 0.0
2017-Nov-14 19:00S 27°23' E 153°10'0 0.0
2017-Nov-14 18:31S 27°23' E 153°10'0 0.0
2017-Nov-14 18:00S 27°23' E 153°10'0 0.0
2017-Nov-14 17:30S 27°23' E 153°10'0 0.0
2017-Nov-14 17:01S 27°23' E 153°10'0 0.0
2017-Nov-14 16:30S 27°23' E 153°10'0 0.0
2017-Nov-14 16:00S 27°23' E 153°10'0 0.0
2017-Nov-14 15:30S 27°23' E 153°10'0 0.0
2017-Nov-14 15:00S 27°23' E 153°10'0 0.0
2017-Nov-14 14:30S 27°23' E 153°10'0 0.0
2017-Nov-14 14:00S 27°23' E 153°10'0 0.0
2017-Nov-14 13:30S 27°23' E 153°10'0 0.0
2017-Nov-14 13:00S 27°23' E 153°10'0 0.0
2017-Nov-14 12:31S 27°23' E 153°10'0 0.0
2017-Nov-14 12:00S 27°23' E 153°10'0 0.0
2017-Nov-14 11:30S 27°23' E 153°10'0 0.0
2017-Nov-14 11:00S 27°23' E 153°10'0 0.0
2017-Nov-14 10:30S 27°23' E 153°10'0 0.0
2017-Nov-14 09:57S 27°23' E 153°10'0 0.0
2017-Nov-14 09:30S 27°23' E 153°10'0 0.0
2017-Nov-14 09:00S 27°23' E 153°10'0 0.0
2017-Nov-14 08:27S 27°23' E 153°10'0 0.0
2017-Nov-14 08:00S 27°23' E 153°10'0 0.0
2017-Nov-14 07:30S 27°23' E 153°10'0 0.0
2017-Nov-14 07:00S 27°23' E 153°10'0 0.0
2017-Nov-14 06:24S 27°23' E 153°10'0 0.0
2017-Nov-14 05:56S 27°23' E 153°10'0 0.0
2017-Nov-14 05:30S 27°23' E 153°10'0 0.0
2017-Nov-14 04:48S 27°23' E 153°10'0 0.0
2017-Nov-14 04:30S 27°23' E 153°10'0 0.0
2017-Nov-14 04:00S 27°23' E 153°10'0 0.0
2017-Nov-14 03:24S 27°23' E 153°10'0 0.0
2017-Nov-14 03:00S 27°23' E 153°10'0 0.0
2017-Nov-14 02:23S 27°23' E 153°10'0 0.0
2017-Nov-14 02:00S 27°23' E 153°10'0 0.0
2017-Nov-13 23:47S 27°23' E 153°10'0 0.0
2017-Nov-13 22:29S 27°23' E 153°10'0 0.0
2017-Nov-13 21:59S 27°23' E 153°10'  
Track history (hours):
 
Tides and Currents Weather Stations Pressure Air Temp Water Temp Dewpoint Dewpoint Depression Visibility Wind Speed Wind Dir Waves Ship Positions

Szechuen

Last reported at 2017-Nov-23 17:00 UTC. Time now 2017-Nov-24 16:46 UTC.
Position S 39°00' E 147°02'.

Length 200 m; draft 8.1 m.

Type: Cargo ship. MMSI: 564407000.

Date/timePositionNaut miles runAvg speedWind from/ knotsBaromVisibWave heightAir tempDewpointWater temp
2017-Nov-23 17:00S 39°00' E 147°02'2913.5
2017-Nov-23 14:49S 38°51' E 147°38'513.8
2017-Nov-23 14:29S 38°49' E 147°44'813.8
2017-Nov-23 13:55S 38°47' E 147°53'613.5
2017-Nov-23 13:29S 38°45' E 148°00'713.4
2017-Nov-23 12:57S 38°43' E 148°09'613.3
2017-Nov-23 12:30S 38°40' E 148°16'713.4
2017-Nov-23 12:00S 38°36' E 148°23'613.0
2017-Nov-23 11:30S 38°32' E 148°30'712.9
2017-Nov-23 11:00S 38°28' E 148°36'713.2
2017-Nov-23 10:30S 38°25' E 148°43'713.2
2017-Nov-23 10:00S 38°21' E 148°50'713.0
2017-Nov-23 09:30S 38°17' E 148°57'  
2017-Nov-20 00:28S 32°55' E 151°46'0 0.0
2017-Nov-19 23:58S 32°55' E 151°46'0 0.0
2017-Nov-19 23:25S 32°55' E 151°46'0 0.0
2017-Nov-19 23:00S 32°55' E 151°46'0 0.0
2017-Nov-19 22:30S 32°55' E 151°46'0 0.0
2017-Nov-19 22:00S 32°55' E 151°46'0 0.5
2017-Nov-19 21:30S 32°55' E 151°46'3 6.7
2017-Nov-19 21:00S 32°55' E 151°50'4 8.3
2017-Nov-19 20:30S 32°59' E 151°53'4 8.2
2017-Nov-19 20:00S 33°01' E 151°57'4 8.7
2017-Nov-19 19:30S 33°02' E 152°02'2 3.4
2017-Nov-19 19:00S 33°03' E 152°04'1 1.1
2017-Nov-19 18:30S 33°03' E 152°04'1 1.1
2017-Nov-19 18:00S 33°04' E 152°05'0 0.2
2017-Nov-19 17:30S 33°04' E 152°05'5 9.5
2017-Nov-19 17:00S 32°59' E 152°06'5 9.7
2017-Nov-19 16:30S 32°55' E 152°08'510.1
2017-Nov-19 16:00S 32°51' E 152°12'510.8
2017-Nov-19 15:30S 32°48' E 152°17'611.1
2017-Nov-19 15:00S 32°44' E 152°23'611.3
2017-Nov-19 14:30S 32°41' E 152°28'612.0
2017-Nov-19 14:00S 32°37' E 152°33'24713.3
2017-Nov-18 19:22S 28°39' E 153°53'412.5
2017-Nov-18 19:00S 28°35' E 153°53'612.0
2017-Nov-18 18:30S 28°29' E 153°53'612.3
2017-Nov-18 17:59S 28°22' E 153°52'612.1
2017-Nov-18 17:30S 28°17' E 153°52'612.2
2017-Nov-18 17:00S 28°10' E 153°52'611.8
2017-Nov-18 16:30S 28°05' E 153°52'611.9
2017-Nov-18 16:00S 27°59' E 153°51'611.9
2017-Nov-18 15:30S 27°53' E 153°51'611.9
2017-Nov-18 15:00S 27°47' E 153°51'612.5
2017-Nov-18 14:30S 27°40' E 153°51'2612.7
2017-Nov-18 12:28S 27°15' E 153°44'712.0
2017-Nov-18 11:53S 27°09' E 153°41'511.8
2017-Nov-18 11:30S 27°05' E 153°39'612.0
2017-Nov-18 10:59S 26°59' E 153°36'1011.4
2017-Nov-18 10:05S 26°51' E 153°29'112.2
2017-Nov-18 10:00S 26°51' E 153°28'1612.1
2017-Nov-18 08:38S 26°42' E 153°12'3 9.9
2017-Nov-18 08:21S 26°45' E 153°13'513.8
2017-Nov-18 08:00S 26°49' E 153°10'713.5
2017-Nov-18 07:30S 26°56' E 153°12'815.2
2017-Nov-18 07:01S 27°03' E 153°16'714.7
2017-Nov-18 06:30S 27°08' E 153°21'715.1
2017-Nov-18 06:01S 27°15' E 153°18'713.9
2017-Nov-18 05:30S 27°20' E 153°12'4 7.1
2017-Nov-18 05:01S 27°23' E 153°10'0 0.0
2017-Nov-18 04:29S 27°23' E 153°10'0 0.0
2017-Nov-18 03:59S 27°23' E 153°10'0 0.0
2017-Nov-18 03:29S 27°23' E 153°10'0 0.0
2017-Nov-18 02:59S 27°23' E 153°10'0 0.0
2017-Nov-18 02:30S 27°23' E 153°10'0 0.0
2017-Nov-18 02:00S 27°23' E 153°10'0 0.0
2017-Nov-18 01:28S 27°23' E 153°10'0 0.0
2017-Nov-18 00:58S 27°23' E 153°10'0 0.0
2017-Nov-18 00:30S 27°23' E 153°10'0 0.0
2017-Nov-17 23:54S 27°23' E 153°10'0 0.0
2017-Nov-17 23:30S 27°23' E 153°10'0 0.0
2017-Nov-17 22:58S 27°23' E 153°10'0 0.0
2017-Nov-17 22:28S 27°23' E 153°10'0 0.0
2017-Nov-17 22:00S 27°23' E 153°10'0 0.0
2017-Nov-17 21:30S 27°23' E 153°10'0 0.0
2017-Nov-17 21:00S 27°23' E 153°10'0 0.0
2017-Nov-17 20:28S 27°23' E 153°10'0 0.0
2017-Nov-17 20:00S 27°23' E 153°10'0 0.0
2017-Nov-17 19:30S 27°23' E 153°10'0 0.0
2017-Nov-17 19:00S 27°23' E 153°10'0 0.0
2017-Nov-17 18:30S 27°23' E 153°10'0 0.0
2017-Nov-17 18:01S 27°23' E 153°10'0 0.0
2017-Nov-17 17:30S 27°23' E 153°10'0 0.0
2017-Nov-17 17:01S 27°23' E 153°10'0 0.0
2017-Nov-17 16:30S 27°23' E 153°10'0 0.0
2017-Nov-17 15:59S 27°23' E 153°10'0 0.0
2017-Nov-17 15:28S 27°23' E 153°10'0 0.0
2017-Nov-17 14:58S 27°23' E 153°10'0 0.0
2017-Nov-17 14:25S 27°23' E 153°10'0 0.0
2017-Nov-17 13:52S 27°23' E 153°10'0 0.0
2017-Nov-17 12:31S 27°23' E 153°10'0 0.0
2017-Nov-17 12:28S 27°23' E 153°10'0 0.0
2017-Nov-17 11:58S 27°23' E 153°10'0 0.0
2017-Nov-17 11:28S 27°23' E 153°10'0 0.0
2017-Nov-17 10:58S 27°23' E 153°10'0 0.0
2017-Nov-17 10:28S 27°23' E 153°10'0 0.0
2017-Nov-17 09:58S 27°23' E 153°10'0 0.0
2017-Nov-17 09:28S 27°23' E 153°10'0 0.0
2017-Nov-17 08:58S 27°23' E 153°10'0 0.0
2017-Nov-17 08:28S 27°23' E 153°10'0 0.0
2017-Nov-17 07:58S 27°23' E 153°10'0 0.0
2017-Nov-17 07:28S 27°23' E 153°10'0 0.0
2017-Nov-17 06:58S 27°23' E 153°10'0 0.0
2017-Nov-17 06:28S 27°23' E 153°10'0 0.0
2017-Nov-17 05:58S 27°23' E 153°10'0 0.0
2017-Nov-17 05:28S 27°23' E 153°10'0 0.0
2017-Nov-17 04:46S 27°23' E 153°10'0 0.0
2017-Nov-17 04:22S 27°23' E 153°10'0 0.0
2017-Nov-17 03:52S 27°23' E 153°10'0 0.0
2017-Nov-17 03:22S 27°23' E 153°10'0 0.0
2017-Nov-17 02:52S 27°23' E 153°10'0 0.0
2017-Nov-17 02:28S 27°23' E 153°10'0 0.0
2017-Nov-17 02:00S 27°23' E 153°10'0 0.0
2017-Nov-17 01:30S 27°23' E 153°10'0 0.0
2017-Nov-17 01:00S 27°23' E 153°10'0 0.0
2017-Nov-17 00:30S 27°23' E 153°10'0 0.0
2017-Nov-17 00:00S 27°23' E 153°10'0 0.0
2017-Nov-16 23:30S 27°23' E 153°10'0 0.0
2017-Nov-16 23:00S 27°23' E 153°10'0 0.0
2017-Nov-16 22:29S 27°23' E 153°10'0 0.0
2017-Nov-16 22:00S 27°23' E 153°10'0 0.0
2017-Nov-16 21:27S 27°23' E 153°10'0 0.0
2017-Nov-16 21:00S 27°23' E 153°10'0 0.0
2017-Nov-16 20:30S 27°23' E 153°10'0 0.0
2017-Nov-16 19:57S 27°23' E 153°10'0 0.0
2017-Nov-16 19:30S 27°23' E 153°10'0 0.0
2017-Nov-16 19:00S 27°23' E 153°10'0 0.0
2017-Nov-16 18:30S 27°23' E 153°10'0 0.0
2017-Nov-16 17:57S 27°23' E 153°10'0 0.0
2017-Nov-16 17:30S 27°23' E 153°10'0 0.0
2017-Nov-16 17:00S 27°23' E 153°10'0 0.0
2017-Nov-16 16:30S 27°23' E 153°10'0 0.0
2017-Nov-16 16:00S 27°23' E 153°10'0 0.0
2017-Nov-16 15:30S 27°23' E 153°10'0 0.0
2017-Nov-16 15:00S 27°23' E 153°10'0 0.0
2017-Nov-16 14:30S 27°23' E 153°10'0 0.0
2017-Nov-16 14:00S 27°23' E 153°10'0 0.0
2017-Nov-16 13:30S 27°23' E 153°10'0 0.0
2017-Nov-16 13:00S 27°23' E 153°10'0 0.0
2017-Nov-16 12:30S 27°23' E 153°10'0 0.0
2017-Nov-16 12:00S 27°23' E 153°10'0 0.0
2017-Nov-16 11:30S 27°23' E 153°10'0 0.0
2017-Nov-16 11:00S 27°23' E 153°10'0 0.0
2017-Nov-16 10:30S 27°23' E 153°10'0 0.0
2017-Nov-16 10:00S 27°23' E 153°10'0 0.0
2017-Nov-16 09:30S 27°23' E 153°10'0 0.0
2017-Nov-16 09:00S 27°23' E 153°10'0 0.0
2017-Nov-16 08:30S 27°23' E 153°10'0 0.0
2017-Nov-16 08:00S 27°23' E 153°10'0 0.0
2017-Nov-16 07:30S 27°23' E 153°10'0 0.0
2017-Nov-16 07:00S 27°23' E 153°10'0 0.0
2017-Nov-16 06:30S 27°23' E 153°10'0 0.0
2017-Nov-16 06:00S 27°23' E 153°10'0 0.0
2017-Nov-16 05:30S 27°23' E 153°10'0 0.0
2017-Nov-16 05:00S 27°23' E 153°10'0 0.0
2017-Nov-16 04:30S 27°23' E 153°10'0 0.0
2017-Nov-16 04:00S 27°23' E 153°10'0 0.0
2017-Nov-16 03:30S 27°23' E 153°10'0 0.0
2017-Nov-16 02:35S 27°23' E 153°10'0 0.0
2017-Nov-16 02:28S 27°23' E 153°10'0 0.0
2017-Nov-16 01:59S 27°23' E 153°10'0 0.0
2017-Nov-16 01:25S 27°23' E 153°10'0 0.0
2017-Nov-16 01:00S 27°23' E 153°10'0 0.0
2017-Nov-16 00:26S 27°23' E 153°10'0 0.0
2017-Nov-15 23:58S 27°23' E 153°10'0 0.0
2017-Nov-15 23:30S 27°23' E 153°10'0 0.0
2017-Nov-15 23:00S 27°23' E 153°10'0 0.0
2017-Nov-15 22:24S 27°23' E 153°10'0 0.0
2017-Nov-15 22:00S 27°23' E 153°10'0 0.0
2017-Nov-15 21:30S 27°23' E 153°10'0 0.0
2017-Nov-15 21:00S 27°23' E 153°10'0 0.0
2017-Nov-15 20:30S 27°23' E 153°10'0 0.0
2017-Nov-15 20:00S 27°23' E 153°10'0 0.0
2017-Nov-15 19:30S 27°23' E 153°10'0 0.0
2017-Nov-15 19:00S 27°23' E 153°10'0 0.0
2017-Nov-15 18:30S 27°23' E 153°10'0 0.0
2017-Nov-15 18:00S 27°23' E 153°10'0 0.0
2017-Nov-15 17:28S 27°23' E 153°10'0 0.0
2017-Nov-15 17:00S 27°23' E 153°10'0 0.0
2017-Nov-15 16:30S 27°23' E 153°10'0 0.0
2017-Nov-15 16:01S 27°23' E 153°10'0 0.0
2017-Nov-15 15:30S 27°23' E 153°10'0 0.0
2017-Nov-15 15:00S 27°23' E 153°10'0 0.0
2017-Nov-15 14:30S 27°23' E 153°10'0 0.0
2017-Nov-15 14:00S 27°23' E 153°10'0 0.0
2017-Nov-15 13:28S 27°23' E 153°10'0 0.0
2017-Nov-15 13:00S 27°23' E 153°10'0 0.0
2017-Nov-15 12:30S 27°23' E 153°10'0 0.0
2017-Nov-15 11:59S 27°23' E 153°10'0 0.0
2017-Nov-15 11:29S 27°23' E 153°10'0 0.0
2017-Nov-15 10:53S 27°23' E 153°10'0 0.0
2017-Nov-15 10:29S 27°23' E 153°10'0 0.0
2017-Nov-15 09:59S 27°23' E 153°10'0 0.0
2017-Nov-15 09:14S 27°23' E 153°10'0 0.0
2017-Nov-15 08:59S 27°23' E 153°10'0 0.0
2017-Nov-15 08:29S 27°23' E 153°10'0 0.0
2017-Nov-15 07:56S 27°23' E 153°10'0 0.0
2017-Nov-15 07:29S 27°23' E 153°10'0 0.0
2017-Nov-15 06:59S 27°23' E 153°10'0 0.0
2017-Nov-15 06:26S 27°23' E 153°10'0 0.0
2017-Nov-15 05:05S 27°23' E 153°10'0 0.0
2017-Nov-15 04:59S 27°23' E 153°10'0 0.0
2017-Nov-15 04:29S 27°23' E 153°10'0 0.0
2017-Nov-15 03:56S 27°23' E 153°10'0 0.0
2017-Nov-15 02:53S 27°23' E 153°10'0 0.0
2017-Nov-15 02:23S 27°23' E 153°10'0 0.0
2017-Nov-15 01:53S 27°23' E 153°10'0 0.0
2017-Nov-15 00:03S 27°23' E 153°10'0 0.0
2017-Nov-14 23:56S 27°23' E 153°10'0 0.0
2017-Nov-14 23:04S 27°23' E 153°10'0 0.0
2017-Nov-14 22:49S 27°23' E 153°10'0 0.0
2017-Nov-14 22:29S 27°23' E 153°10'0 0.0
2017-Nov-14 22:00S 27°23' E 153°10'0 0.0
2017-Nov-14 21:30S 27°23' E 153°10'0 0.0
2017-Nov-14 21:00S 27°23' E 153°10'0 0.0
2017-Nov-14 20:30S 27°23' E 153°10'0 0.0
2017-Nov-14 20:00S 27°23' E 153°10'0 0.0
2017-Nov-14 19:30S 27°23' E 153°10'0 0.0
2017-Nov-14 19:00S 27°23' E 153°10'0 0.0
2017-Nov-14 18:31S 27°23' E 153°10'0 0.0
2017-Nov-14 18:00S 27°23' E 153°10'0 0.0
2017-Nov-14 17:30S 27°23' E 153°10'0 0.0
2017-Nov-14 17:01S 27°23' E 153°10'0 0.0
2017-Nov-14 16:30S 27°23' E 153°10'0 0.0
2017-Nov-14 16:00S 27°23' E 153°10'0 0.0
2017-Nov-14 15:30S 27°23' E 153°10'0 0.0
2017-Nov-14 15:00S 27°23' E 153°10'0 0.0
2017-Nov-14 14:30S 27°23' E 153°10'0 0.0
2017-Nov-14 14:00S 27°23' E 153°10'0 0.0
2017-Nov-14 13:30S 27°23' E 153°10'0 0.0
2017-Nov-14 13:00S 27°23' E 153°10'0 0.0
2017-Nov-14 12:31S 27°23' E 153°10'0 0.0
2017-Nov-14 12:00S 27°23' E 153°10'0 0.0
2017-Nov-14 11:30S 27°23' E 153°10'0 0.0
2017-Nov-14 11:00S 27°23' E 153°10'0 0.0
2017-Nov-14 10:30S 27°23' E 153°10'0 0.0
2017-Nov-14 09:57S 27°23' E 153°10'0 0.0
2017-Nov-14 09:30S 27°23' E 153°10'0 0.0
2017-Nov-14 09:00S 27°23' E 153°10'0 0.0
2017-Nov-14 08:27S 27°23' E 153°10'0 0.0
2017-Nov-14 08:00S 27°23' E 153°10'0 0.0
2017-Nov-14 07:30S 27°23' E 153°10'0 0.0
2017-Nov-14 07:00S 27°23' E 153°10'0 0.0
2017-Nov-14 06:24S 27°23' E 153°10'0 0.0
2017-Nov-14 05:56S 27°23' E 153°10'0 0.0
2017-Nov-14 05:30S 27°23' E 153°10'0 0.0
2017-Nov-14 04:48S 27°23' E 153°10'0 0.0
2017-Nov-14 04:30S 27°23' E 153°10'0 0.0
2017-Nov-14 04:00S 27°23' E 153°10'0 0.0
2017-Nov-14 03:24S 27°23' E 153°10'0 0.0
2017-Nov-14 03:00S 27°23' E 153°10'0 0.0
2017-Nov-14 02:23S 27°23' E 153°10'0 0.0
2017-Nov-14 02:00S 27°23' E 153°10'0 0.0
2017-Nov-13 23:47S 27°23' E 153°10'0 0.0
2017-Nov-13 22:29S 27°23' E 153°10'0 0.0
2017-Nov-13 21:59S 27°23' E 153°10'  

Dump ship's entire track history